createdAt,value
2018-09-21T00:00:30.309Z,0
2018-09-21T00:01:32.344Z,0
2018-09-21T00:02:34.380Z,0
2018-09-21T00:03:36.437Z,0
2018-09-21T00:04:38.456Z,0
2018-09-21T00:05:40.498Z,0
2018-09-21T00:06:42.540Z,0
2018-09-21T00:07:44.582Z,0
2018-09-21T00:08:46.614Z,0
2018-09-21T00:09:48.937Z,0
2018-09-21T00:10:51.266Z,0
2018-09-21T00:11:53.300Z,0
2018-09-21T00:12:55.359Z,0
2018-09-21T00:13:57.680Z,0
2018-09-21T00:14:59.709Z,0
2018-09-21T00:16:02.142Z,0
2018-09-21T00:17:04.450Z,0
2018-09-21T00:18:06.483Z,0
2018-09-21T00:19:08.526Z,0
2018-09-21T00:20:10.848Z,0
2018-09-21T00:21:13.178Z,0
2018-09-21T00:22:15.524Z,0
2018-09-21T00:23:18.255Z,0
2018-09-21T00:24:20.287Z,0
2018-09-21T00:25:22.342Z,0
2018-09-21T00:26:24.753Z,0
2018-09-21T00:27:27.168Z,0
2018-09-21T00:28:29.219Z,0
2018-09-21T00:29:31.243Z,0
2018-09-21T00:30:33.677Z,0
2018-09-21T00:31:35.710Z,0
2018-09-21T00:32:38.043Z,0
2018-09-21T00:33:40.078Z,0
2018-09-21T00:34:42.116Z,0
2018-09-21T00:35:44.162Z,0
2018-09-21T00:36:46.184Z,0
2018-09-21T00:37:48.230Z,0
2018-09-21T00:38:50.261Z,0
2018-09-21T00:39:52.292Z,0
2018-09-21T00:40:54.324Z,0
2018-09-21T00:41:56.370Z,0
2018-09-21T00:42:58.684Z,0
2018-09-21T00:44:00.715Z,0
2018-09-21T00:45:02.747Z,0
2018-09-21T00:46:05.183Z,0
2018-09-21T00:47:07.222Z,0
2018-09-21T00:48:09.259Z,0
2018-09-21T00:49:11.316Z,0
2018-09-21T00:50:13.345Z,0
2018-09-21T00:51:15.380Z,0
2018-09-21T00:52:17.421Z,0
2018-09-21T00:53:19.451Z,0
2018-09-21T00:54:21.770Z,0
2018-09-21T00:55:23.810Z,0
2018-09-21T00:56:25.853Z,0
2018-09-21T00:57:27.882Z,0
2018-09-21T00:58:30.509Z,0
2018-09-21T00:59:32.542Z,0
2018-09-21T01:00:34.569Z,0
2018-09-21T01:01:36.616Z,0
2018-09-21T01:02:39.028Z,0
2018-09-21T01:03:41.065Z,0
2018-09-21T01:04:43.093Z,0
2018-09-21T01:05:45.141Z,0
2018-09-21T01:06:47.181Z,0
2018-09-21T01:07:49.217Z,0
2018-09-21T01:08:51.259Z,0
2018-09-21T01:09:53.283Z,0
2018-09-21T01:10:55.331Z,0
2018-09-21T01:11:57.361Z,0
2018-09-21T01:12:59.395Z,0
2018-09-21T01:14:01.713Z,0
2018-09-21T01:15:04.147Z,0
2018-09-21T01:16:06.182Z,0
2018-09-21T01:17:08.535Z,0
2018-09-21T01:18:11.235Z,0
2018-09-21T01:19:13.258Z,0
2018-09-21T01:20:15.587Z,0
2018-09-21T01:21:17.620Z,0
2018-09-21T01:22:19.949Z,0
2018-09-21T01:23:22.001Z,0
2018-09-21T01:24:24.038Z,0
2018-09-21T01:25:26.366Z,0
2018-09-21T01:26:28.670Z,0
2018-09-21T01:27:30.714Z,0
2018-09-21T01:28:33.146Z,0
2018-09-21T01:29:35.187Z,0
2018-09-21T01:30:37.214Z,0
2018-09-21T01:31:39.260Z,0
2018-09-21T01:32:41.303Z,0
2018-09-21T01:33:43.372Z,0
2018-09-21T01:34:45.416Z,0
2018-09-21T01:35:47.721Z,0
2018-09-21T01:36:49.758Z,0
2018-09-21T01:37:51.788Z,0
2018-09-21T01:38:54.223Z,0
2018-09-21T01:39:56.252Z,0
2018-09-21T01:40:58.286Z,0
2018-09-21T01:42:00.328Z,0
2018-09-21T01:43:02.353Z,0
2018-09-21T01:44:04.403Z,0
2018-09-21T01:45:06.432Z,0
2018-09-21T01:46:08.462Z,0
2018-09-21T01:47:10.499Z,0
2018-09-21T01:48:13.125Z,0
2018-09-21T01:49:15.170Z,0
2018-09-21T01:50:17.218Z,0
2018-09-21T01:51:19.240Z,0
2018-09-21T01:52:21.858Z,0
2018-09-21T01:53:23.905Z,0
2018-09-21T01:54:25.953Z,0
2018-09-21T01:55:27.973Z,0
2018-09-21T01:56:30.015Z,0
2018-09-21T01:57:32.062Z,0
2018-09-21T01:58:34.496Z,0
2018-09-21T01:59:36.520Z,0
2018-09-21T02:00:38.561Z,0
2018-09-21T02:01:40.604Z,0
2018-09-21T02:02:42.642Z,0
2018-09-21T02:03:44.673Z,0
2018-09-21T02:04:46.721Z,0
2018-09-21T02:05:48.752Z,0
2018-09-21T02:06:50.778Z,0
2018-09-21T02:07:52.823Z,0
2018-09-21T02:08:55.146Z,0
2018-09-21T02:09:57.185Z,0
2018-09-21T02:10:59.229Z,0
2018-09-21T02:12:01.279Z,0
2018-09-21T02:13:03.319Z,0
2018-09-21T02:14:05.349Z,0
2018-09-21T02:15:07.680Z,0
2018-09-21T02:16:09.755Z,0
2018-09-21T02:17:11.808Z,0
2018-09-21T02:18:13.832Z,0
2018-09-21T02:19:15.863Z,0
2018-09-21T02:20:17.887Z,0
2018-09-21T02:21:19.936Z,0
2018-09-21T02:22:21.969Z,0
2018-09-21T02:23:24.319Z,0
2018-09-21T02:24:26.361Z,0
2018-09-21T02:25:28.381Z,0
2018-09-21T02:26:30.416Z,0
2018-09-21T02:27:32.467Z,0
2018-09-21T02:28:34.499Z,0
2018-09-21T02:29:36.535Z,0
2018-09-21T02:30:38.565Z,0
2018-09-21T02:31:40.878Z,0
2018-09-21T02:32:43.231Z,0
2018-09-21T02:33:45.560Z,0
2018-09-21T02:34:47.878Z,0
2018-09-21T02:35:50.910Z,0
2018-09-21T02:36:52.952Z,0
2018-09-21T02:37:55.551Z,0
2018-09-21T02:38:57.595Z,0
2018-09-21T02:39:59.938Z,0
2018-09-21T02:41:02.252Z,0
2018-09-21T02:42:05.280Z,0
2018-09-21T02:43:07.700Z,0
2018-09-21T02:44:09.742Z,0
2018-09-21T02:45:11.767Z,0
2018-09-21T02:46:13.806Z,0
2018-09-21T02:47:15.842Z,0
2018-09-21T02:48:17.875Z,0
2018-09-21T02:49:20.322Z,0
2018-09-21T02:50:22.338Z,0
2018-09-21T02:51:24.382Z,0
2018-09-21T02:52:26.714Z,0
2018-09-21T02:53:29.051Z,0
2018-09-21T02:54:31.075Z,0
2018-09-21T02:55:33.111Z,0
2018-09-21T02:56:35.536Z,0
2018-09-21T02:57:37.566Z,0
2018-09-21T02:58:40.001Z,0
2018-09-21T02:59:42.615Z,0
2018-09-21T03:00:45.105Z,0
2018-09-21T03:01:47.535Z,0
2018-09-21T03:02:49.566Z,0
2018-09-21T03:03:51.614Z,0
2018-09-21T03:04:53.946Z,0
2018-09-21T03:05:55.969Z,0
2018-09-21T03:06:58.015Z,0
2018-09-21T03:08:00.053Z,0
2018-09-21T03:09:02.393Z,0
2018-09-21T03:10:04.719Z,0
2018-09-21T03:11:06.761Z,0
2018-09-21T03:12:08.796Z,0
2018-09-21T03:13:11.211Z,0
2018-09-21T03:14:13.176Z,0
2018-09-21T03:15:15.518Z,0
2018-09-21T03:16:17.865Z,0
2018-09-21T03:17:20.580Z,0
2018-09-21T03:18:22.613Z,0
2018-09-21T03:19:24.649Z,0
2018-09-21T03:20:26.995Z,0
2018-09-21T03:21:29.028Z,0
2018-09-21T03:22:31.362Z,0
2018-09-21T03:23:33.692Z,0
2018-09-21T03:24:35.734Z,0
2018-09-21T03:25:38.353Z,0
2018-09-21T03:26:40.391Z,0
2018-09-21T03:27:42.422Z,0
2018-09-21T03:28:44.744Z,0
2018-09-21T03:29:46.773Z,0
2018-09-21T03:30:50.088Z,0
2018-09-21T03:31:53.100Z,0
2018-09-21T03:32:55.809Z,0
2018-09-21T03:33:57.837Z,0
2018-09-21T03:34:59.884Z,0
2018-09-21T03:36:02.499Z,0
2018-09-21T03:37:04.531Z,0
2018-09-21T03:38:06.569Z,0
2018-09-21T03:39:08.605Z,0
2018-09-21T03:40:10.640Z,0
2018-09-21T03:41:12.677Z,0
2018-09-21T03:42:14.715Z,0
2018-09-21T03:43:16.741Z,0
2018-09-21T03:44:18.790Z,0
2018-09-21T03:45:20.828Z,0
2018-09-21T03:46:22.851Z,0
2018-09-21T03:47:24.895Z,0
2018-09-21T03:48:26.921Z,0
2018-09-21T03:49:29.352Z,0
2018-09-21T03:50:31.386Z,0
2018-09-21T03:51:33.435Z,0
2018-09-21T03:52:35.473Z,0
2018-09-21T03:53:37.509Z,0
2018-09-21T03:54:39.551Z,0
2018-09-21T03:55:41.576Z,0
2018-09-21T03:56:43.633Z,0
2018-09-21T03:57:45.664Z,0
2018-09-21T03:58:47.987Z,0
2018-09-21T03:59:50.016Z,0
2018-09-21T04:00:52.335Z,0
2018-09-21T04:01:54.369Z,0
2018-09-21T04:02:56.687Z,0
2018-09-21T04:03:58.725Z,0
2018-09-21T04:05:00.749Z,0
2018-09-21T04:06:03.094Z,0
2018-09-21T04:07:05.131Z,0
2018-09-21T04:08:07.158Z,0
2018-09-21T04:09:09.476Z,0
2018-09-21T04:10:11.512Z,0
2018-09-21T04:11:13.541Z,0
2018-09-21T04:12:15.605Z,0
2018-09-21T04:13:18.352Z,0
2018-09-21T04:14:20.379Z,0
2018-09-21T04:15:22.404Z,0
2018-09-21T04:16:24.839Z,0
2018-09-21T04:17:27.190Z,0
2018-09-21T04:18:29.232Z,0
2018-09-21T04:19:31.281Z,0
2018-09-21T04:20:33.975Z,0
2018-09-21T04:21:36.307Z,0
2018-09-21T04:22:38.624Z,0
2018-09-21T04:23:40.665Z,0
2018-09-21T04:24:42.696Z,4
2018-09-21T04:25:44.733Z,4
2018-09-21T04:26:47.112Z,0
2018-09-21T04:27:49.440Z,0
2018-09-21T04:28:51.483Z,4
2018-09-21T04:29:53.513Z,4
2018-09-21T04:30:55.547Z,4
2018-09-21T04:31:57.574Z,8
2018-09-21T04:32:59.615Z,8
2018-09-21T04:34:01.942Z,8
2018-09-21T04:35:03.978Z,12
2018-09-21T04:36:06.307Z,16
2018-09-21T04:37:09.155Z,16
2018-09-21T04:38:11.178Z,20
2018-09-21T04:39:13.893Z,20
2018-09-21T04:40:16.229Z,28
2018-09-21T04:41:18.534Z,32
2018-09-21T04:42:20.579Z,40
2018-09-21T04:43:22.609Z,44
2018-09-21T04:44:24.918Z,52
2018-09-21T04:45:26.960Z,60
2018-09-21T04:46:28.994Z,72
2018-09-21T04:47:31.411Z,80
2018-09-21T04:48:33.440Z,92
2018-09-21T04:49:35.484Z,104
2018-09-21T04:50:37.514Z,116
2018-09-21T04:51:39.554Z,132
2018-09-21T04:52:41.880Z,148
2018-09-21T04:53:44.294Z,164
2018-09-21T04:54:46.669Z,188
2018-09-21T04:55:48.695Z,208
2018-09-21T04:56:50.733Z,232
2018-09-21T04:57:52.764Z,256
2018-09-21T04:58:55.092Z,276
2018-09-21T04:59:57.283Z,304
2018-09-21T05:00:59.158Z,336
2018-09-21T05:02:01.205Z,376
2018-09-21T05:03:03.231Z,420
2018-09-21T05:04:05.277Z,468
2018-09-21T05:05:07.314Z,512
2018-09-21T05:06:09.351Z,564
2018-09-21T05:07:11.688Z,620
2018-09-21T05:08:13.723Z,676
2018-09-21T05:09:15.754Z,736
2018-09-21T05:10:17.790Z,788
2018-09-21T05:11:20.117Z,832
2018-09-21T05:12:22.157Z,884
2018-09-21T05:13:24.183Z,928
2018-09-21T05:14:26.228Z,972
2018-09-21T05:15:28.261Z,1020
2018-09-21T05:16:30.297Z,1064
2018-09-21T05:17:32.335Z,1116
2018-09-21T05:18:34.362Z,1176
2018-09-21T05:19:36.398Z,1244
2018-09-21T05:20:38.436Z,1324
2018-09-21T05:21:40.474Z,1400
2018-09-21T05:22:42.500Z,1468
2018-09-21T05:23:44.542Z,1544
2018-09-21T05:24:46.573Z,1628
2018-09-21T05:25:48.605Z,1700
2018-09-21T05:26:50.648Z,1788
2018-09-21T05:27:52.674Z,1864
2018-09-21T05:28:54.999Z,1944
2018-09-21T05:29:57.415Z,2032
2018-09-21T05:30:59.764Z,2112
2018-09-21T05:32:01.797Z,2184
2018-09-21T05:33:04.215Z,2248
2018-09-21T05:34:06.731Z,2300
2018-09-21T05:35:08.880Z,2336
2018-09-21T05:36:10.710Z,2384
2018-09-21T05:37:12.739Z,2440
2018-09-21T05:38:15.057Z,2516
2018-09-21T05:39:17.093Z,2560
2018-09-21T05:40:19.138Z,2592
2018-09-21T05:41:21.180Z,2608
2018-09-21T05:42:23.508Z,2652
2018-09-21T05:43:25.549Z,2688
2018-09-21T05:44:27.864Z,2684
2018-09-21T05:45:30.191Z,2668
2018-09-21T05:46:32.221Z,2700
2018-09-21T05:47:34.553Z,2700
2018-09-21T05:48:36.580Z,2716
2018-09-21T05:49:38.616Z,2808
2018-09-21T05:50:40.653Z,2896
2018-09-21T05:51:42.682Z,2960
2018-09-21T05:52:44.723Z,2916
2018-09-21T05:53:47.045Z,2904
2018-09-21T05:54:49.088Z,2876
2018-09-21T05:55:51.111Z,2848
2018-09-21T05:56:53.540Z,2816
2018-09-21T05:57:55.854Z,2812
2018-09-21T05:58:57.885Z,2840
2018-09-21T05:59:59.933Z,2868
2018-09-21T06:01:01.964Z,2916
2018-09-21T06:02:04.426Z,2984
2018-09-21T06:03:06.424Z,3048
2018-09-21T06:04:08.472Z,3092
2018-09-21T06:05:10.792Z,3160
2018-09-21T06:06:12.826Z,3224
2018-09-21T06:07:14.867Z,3308
2018-09-21T06:08:17.278Z,3400
2018-09-21T06:09:19.626Z,3496
2018-09-21T06:10:21.660Z,3544
2018-09-21T06:11:23.692Z,3616
2018-09-21T06:12:25.721Z,3636
2018-09-21T06:13:27.788Z,3704
2018-09-21T06:14:30.112Z,3744
2018-09-21T06:15:32.150Z,3824
2018-09-21T06:16:34.194Z,3888
2018-09-21T06:17:36.215Z,3912
2018-09-21T06:18:38.260Z,3984
2018-09-21T06:19:40.296Z,4032
2018-09-21T06:20:42.607Z,4056
2018-09-21T06:21:44.644Z,4124
2018-09-21T06:22:46.709Z,4180
2018-09-21T06:23:48.720Z,4232
2018-09-21T06:24:50.745Z,4384
2018-09-21T06:25:53.072Z,4520
2018-09-21T06:26:55.117Z,4600
2018-09-21T06:27:57.162Z,4760
2018-09-21T06:28:59.464Z,4884
2018-09-21T06:30:01.504Z,4972
2018-09-21T06:31:03.823Z,5052
2018-09-21T06:32:05.949Z,5132
2018-09-21T06:33:07.910Z,5260
2018-09-21T06:34:09.934Z,5272
2018-09-21T06:35:11.974Z,5288
2018-09-21T06:36:14.001Z,5296
2018-09-21T06:37:16.448Z,5376
2018-09-21T06:38:18.479Z,5472
2018-09-21T06:39:20.524Z,5520
2018-09-21T06:40:22.561Z,5716
2018-09-21T06:41:24.595Z,5732
2018-09-21T06:42:26.941Z,5764
2018-09-21T06:43:29.603Z,5892
2018-09-21T06:44:31.635Z,6052
2018-09-21T06:45:33.665Z,6212
2018-09-21T06:46:35.714Z,6288
2018-09-21T06:47:37.750Z,6408
2018-09-21T06:48:39.788Z,6428
2018-09-21T06:49:41.859Z,6620
2018-09-21T06:50:44.146Z,6716
2018-09-21T06:51:46.188Z,6860
2018-09-21T06:52:48.925Z,7100
2018-09-21T06:53:51.241Z,7324
2018-09-21T06:54:53.281Z,7412
2018-09-21T06:55:55.314Z,7388
2018-09-21T06:56:57.347Z,7704
2018-09-21T06:57:59.394Z,7872
2018-09-21T06:59:01.428Z,8040
2018-09-21T07:00:03.746Z,8224
2018-09-21T07:01:06.063Z,8344
2018-09-21T07:02:08.096Z,8416
2018-09-21T07:03:10.452Z,8612
2018-09-21T07:04:12.871Z,8808
2018-09-21T07:05:15.181Z,8980
2018-09-21T07:06:17.224Z,9092
2018-09-21T07:07:19.260Z,9204
2018-09-21T07:08:21.311Z,9292
2018-09-21T07:09:23.743Z,9308
2018-09-21T07:10:26.091Z,9384
2018-09-21T07:11:28.122Z,9424
2018-09-21T07:12:30.161Z,9448
2018-09-21T07:13:32.211Z,9436
2018-09-21T07:14:34.522Z,9644
2018-09-21T07:15:36.573Z,9812
2018-09-21T07:16:38.607Z,10016
2018-09-21T07:17:40.643Z,10192
2018-09-21T07:18:42.676Z,10452
2018-09-21T07:19:44.721Z,10660
2018-09-21T07:20:46.762Z,10800
2018-09-21T07:21:48.806Z,10824
2018-09-21T07:22:50.850Z,11116
2018-09-21T07:23:52.880Z,11196
2018-09-21T07:24:54.925Z,11476
2018-09-21T07:25:56.967Z,11696
2018-09-21T07:26:59.382Z,11896
2018-09-21T07:28:01.735Z,12004
2018-09-21T07:29:03.775Z,12432
2018-09-21T07:30:05.814Z,12512
2018-09-21T07:31:08.651Z,12840
2018-09-21T07:32:10.665Z,13624
2018-09-21T07:33:12.704Z,13948
2018-09-21T07:34:14.739Z,14600
2018-09-21T07:35:16.789Z,15452
2018-09-21T07:36:18.831Z,21376
2018-09-21T07:37:20.895Z,31648
2018-09-21T07:38:23.341Z,36416
2018-09-21T07:39:25.370Z,35744
2018-09-21T07:40:27.420Z,39456
2018-09-21T07:41:29.456Z,39328
2018-09-21T07:42:31.791Z,35264
2018-09-21T07:43:33.826Z,32576
2018-09-21T07:44:35.932Z,36192
2018-09-21T07:45:37.922Z,37504
2018-09-21T07:46:39.963Z,33824
2018-09-21T07:47:42.018Z,26912
2018-09-21T07:48:44.114Z,22752
2018-09-21T07:49:46.102Z,22112
2018-09-21T07:50:48.147Z,18368
2018-09-21T07:51:50.208Z,20768
2018-09-21T07:52:52.246Z,35232
2018-09-21T07:53:54.883Z,31168
2018-09-21T07:54:56.932Z,40160
2018-09-21T07:55:59.363Z,43968
2018-09-21T07:57:01.800Z,29056
2018-09-21T07:58:03.842Z,38016
2018-09-21T07:59:05.875Z,43648
2018-09-21T08:00:07.939Z,32672
2018-09-21T08:01:10.276Z,43328
2018-09-21T08:02:12.328Z,38080
2018-09-21T08:03:14.376Z,20928
2018-09-21T08:04:16.412Z,40192
2018-09-21T08:05:18.461Z,39456
2018-09-21T08:06:20.509Z,37312
2018-09-21T08:07:22.575Z,49088
2018-09-21T08:08:24.961Z,56832
2018-09-21T08:09:27.013Z,59008
2018-09-21T08:10:29.346Z,59520
2018-09-21T08:11:31.676Z,48736
2018-09-21T08:12:33.734Z,42400
2018-09-21T08:13:35.764Z,54528
2018-09-21T08:14:38.208Z,57152
2018-09-21T08:15:40.541Z,52512
2018-09-21T08:16:42.597Z,48288
2018-09-21T08:17:44.636Z,38368
2018-09-21T08:18:46.681Z,31232
2018-09-21T08:19:48.735Z,29152
2018-09-21T08:20:51.179Z,22944
2018-09-21T08:21:53.778Z,24480
2018-09-21T08:22:55.828Z,24832
2018-09-21T08:23:58.261Z,28416
2018-09-21T08:25:00.337Z,28672
2018-09-21T08:26:02.357Z,32544
2018-09-21T08:27:04.410Z,38400
2018-09-21T08:28:06.777Z,30944
2018-09-21T08:29:09.419Z,47104
2018-09-21T08:30:11.483Z,40416
2018-09-21T08:31:13.543Z,22592
2018-09-21T08:32:15.874Z,43552
2018-09-21T08:33:18.006Z,56672
2018-09-21T08:34:20.384Z,63200
2018-09-21T08:35:22.433Z,59456
2018-09-21T08:36:24.491Z,51936
2018-09-21T08:37:26.528Z,37792
2018-09-21T08:38:28.587Z,36640
2018-09-21T08:39:30.635Z,35968
2018-09-21T08:40:32.686Z,42048
2018-09-21T08:41:35.080Z,25216
2018-09-21T08:42:37.419Z,22656
2018-09-21T08:43:39.465Z,24640
2018-09-21T08:44:42.177Z,31264
2018-09-21T08:45:44.274Z,71904
2018-09-21T08:46:46.592Z,62144
2018-09-21T08:47:48.642Z,59680
2018-09-21T08:48:50.681Z,44416
2018-09-21T08:49:52.752Z,27808
2018-09-21T08:50:54.797Z,26528
2018-09-21T08:51:56.845Z,25728
2018-09-21T08:52:59.002Z,31264
2018-09-21T08:54:01.708Z,28064
2018-09-21T08:55:04.100Z,33440
2018-09-21T08:56:06.494Z,22560
2018-09-21T08:57:08.542Z,19136
2018-09-21T08:58:11.002Z,19232
2018-09-21T08:59:13.041Z,22176
2018-09-21T09:00:15.085Z,24832
2018-09-21T09:01:17.141Z,30784
2018-09-21T09:02:19.188Z,30784
2018-09-21T09:03:21.691Z,29696
2018-09-21T09:04:23.672Z,27424
2018-09-21T09:05:25.721Z,28512
2018-09-21T09:06:28.164Z,30304
2018-09-21T09:07:30.200Z,36480
2018-09-21T09:08:32.921Z,36928
2018-09-21T09:09:34.979Z,25728
2018-09-21T09:10:37.301Z,23904
2018-09-21T09:11:39.354Z,17856
2018-09-21T09:12:41.411Z,15516
2018-09-21T09:13:43.768Z,14160
2018-09-21T09:14:45.805Z,13384
2018-09-21T09:15:47.851Z,13808
2018-09-21T09:16:49.895Z,14020
2018-09-21T09:17:51.935Z,14224
2018-09-21T09:18:53.993Z,14420
2018-09-21T09:19:56.329Z,15136
2018-09-21T09:20:58.377Z,16416
2018-09-21T09:22:00.723Z,16864
2018-09-21T09:23:03.090Z,16296
2018-09-21T09:24:05.424Z,14516
2018-09-21T09:25:07.498Z,13460
2018-09-21T09:26:09.533Z,12880
2018-09-21T09:27:11.573Z,12664
2018-09-21T09:28:13.632Z,12504
2018-09-21T09:29:15.972Z,12544
2018-09-21T09:30:18.678Z,12500
2018-09-21T09:31:20.717Z,12824
2018-09-21T09:32:22.777Z,13296
2018-09-21T09:33:24.818Z,13488
2018-09-21T09:34:27.242Z,13892
2018-09-21T09:35:29.282Z,14808
2018-09-21T09:36:31.338Z,15396
2018-09-21T09:37:33.377Z,16640
2018-09-21T09:38:35.710Z,15584
2018-09-21T09:39:37.762Z,15268
2018-09-21T09:40:39.798Z,14244
2018-09-21T09:41:41.846Z,13416
2018-09-21T09:42:43.990Z,12544
2018-09-21T09:43:45.949Z,11704
2018-09-21T09:44:47.998Z,11236
2018-09-21T09:45:50.077Z,10964
2018-09-21T09:46:52.130Z,10748
2018-09-21T09:47:54.548Z,10656
2018-09-21T09:48:56.744Z,11132
2018-09-21T09:49:58.639Z,12000
2018-09-21T09:51:00.678Z,13176
2018-09-21T09:52:03.027Z,14484
2018-09-21T09:53:05.084Z,15396
2018-09-21T09:54:07.139Z,16720
2018-09-21T09:55:09.173Z,18528
2018-09-21T09:56:11.228Z,21728
2018-09-21T09:57:13.560Z,23008
2018-09-21T09:58:15.608Z,22624
2018-09-21T09:59:17.656Z,17400
2018-09-21T10:00:19.692Z,17440
2018-09-21T10:01:21.749Z,18464
2018-09-21T10:02:24.073Z,20864
2018-09-21T10:03:26.424Z,21376
2018-09-21T10:04:28.456Z,21344
2018-09-21T10:05:30.503Z,21824
2018-09-21T10:06:32.545Z,21536
2018-09-21T10:07:34.591Z,23488
2018-09-21T10:08:36.646Z,32384
2018-09-21T10:09:38.680Z,29216
2018-09-21T10:10:40.745Z,45056
2018-09-21T10:11:42.798Z,29984
2018-09-21T10:12:44.843Z,25728
2018-09-21T10:13:46.897Z,30176
2018-09-21T10:14:48.967Z,36896
2018-09-21T10:15:51.005Z,27520
2018-09-21T10:16:53.070Z,24512
2018-09-21T10:17:55.111Z,22240
2018-09-21T10:18:57.161Z,20000
2018-09-21T10:19:59.873Z,18560
2018-09-21T10:21:02.218Z,16608
2018-09-21T10:22:04.937Z,14204
2018-09-21T10:23:06.995Z,11968
2018-09-21T10:24:09.386Z,10700
2018-09-21T10:25:12.148Z,10148
2018-09-21T10:26:14.202Z,9552
2018-09-21T10:27:16.322Z,9180
2018-09-21T10:28:19.062Z,9216
2018-09-21T10:29:20.945Z,9588
2018-09-21T10:30:23.328Z,10040
2018-09-21T10:31:25.700Z,10244
2018-09-21T10:32:28.151Z,10536
2018-09-21T10:33:30.619Z,11136
2018-09-21T10:34:33.164Z,11716
2018-09-21T10:35:35.703Z,11560
2018-09-21T10:36:38.484Z,10436
2018-09-21T10:37:40.539Z,9720
2018-09-21T10:38:42.592Z,8996
2018-09-21T10:39:45.655Z,9144
2018-09-21T10:40:47.700Z,8900
2018-09-21T10:41:50.024Z,8624
2018-09-21T10:42:52.355Z,8244
2018-09-21T10:43:54.322Z,7932
2018-09-21T10:44:56.656Z,7692
2018-09-21T10:45:58.992Z,7776
2018-09-21T10:47:01.032Z,7892
2018-09-21T10:48:03.746Z,7836
2018-09-21T10:49:05.788Z,7788
2018-09-21T10:50:07.878Z,8224
2018-09-21T10:51:09.885Z,8752
2018-09-21T10:52:11.924Z,9148
2018-09-21T10:53:13.991Z,9688
2018-09-21T10:54:16.026Z,10112
2018-09-21T10:55:18.350Z,10232
2018-09-21T10:56:20.396Z,10416
2018-09-21T10:57:22.488Z,10896
2018-09-21T10:58:24.521Z,11072
2018-09-21T10:59:26.899Z,11176
2018-09-21T11:00:29.255Z,12116
2018-09-21T11:01:31.742Z,12640
2018-09-21T11:02:33.775Z,12168
2018-09-21T11:03:35.828Z,11248
2018-09-21T11:04:37.875Z,10140
2018-09-21T11:05:39.910Z,9328
2018-09-21T11:06:41.983Z,8608
2018-09-21T11:07:44.019Z,7916
2018-09-21T11:08:46.070Z,7180
2018-09-21T11:09:48.116Z,6728
2018-09-21T11:10:50.842Z,6492
2018-09-21T11:11:53.164Z,6236
2018-09-21T11:12:55.260Z,5796
2018-09-21T11:13:57.300Z,5480
2018-09-21T11:14:59.642Z,5208
2018-09-21T11:16:01.699Z,5012
2018-09-21T11:17:03.737Z,4988
2018-09-21T11:18:06.163Z,5188
2018-09-21T11:19:08.497Z,5252
2018-09-21T11:20:10.538Z,5012
2018-09-21T11:21:13.258Z,4844
2018-09-21T11:22:15.589Z,4904
2018-09-21T11:23:17.645Z,5100
2018-09-21T11:24:20.000Z,5132
2018-09-21T11:25:22.088Z,4996
2018-09-21T11:26:24.144Z,5248
2018-09-21T11:27:26.518Z,5668
2018-09-21T11:28:28.556Z,6412
2018-09-21T11:29:30.608Z,7284
2018-09-21T11:30:32.699Z,8204
2018-09-21T11:31:34.732Z,8696
2018-09-21T11:32:36.797Z,8468
2018-09-21T11:33:38.852Z,8216
2018-09-21T11:34:40.913Z,8276
2018-09-21T11:35:43.358Z,8672
2018-09-21T11:36:45.420Z,9488
2018-09-21T11:37:47.501Z,10512
2018-09-21T11:38:49.539Z,11112
2018-09-21T11:39:51.593Z,11424
2018-09-21T11:40:53.631Z,11216
2018-09-21T11:41:55.676Z,10684
2018-09-21T11:42:57.769Z,10512
2018-09-21T11:43:59.815Z,10440
2018-09-21T11:45:01.860Z,10344
2018-09-21T11:46:03.925Z,10328
2018-09-21T11:47:06.017Z,9804
2018-09-21T11:48:08.439Z,10072
2018-09-21T11:49:10.496Z,10668
2018-09-21T11:50:12.534Z,10384
2018-09-21T11:51:14.952Z,9728
2018-09-21T11:52:17.013Z,8576
2018-09-21T11:53:19.054Z,7336
2018-09-21T11:54:21.107Z,5968
2018-09-21T11:55:23.437Z,4644
2018-09-21T11:56:25.535Z,4844
2018-09-21T11:57:27.581Z,4804
2018-09-21T11:58:29.635Z,4668
2018-09-21T11:59:31.688Z,4340
2018-09-21T12:00:33.721Z,3836
2018-09-21T12:01:35.773Z,4064
2018-09-21T12:02:37.810Z,3436
2018-09-21T12:03:39.846Z,2616
2018-09-21T12:04:41.892Z,1892
2018-09-21T12:05:43.943Z,1560
2018-09-21T12:06:45.980Z,1408
2018-09-21T12:07:48.027Z,1336
2018-09-21T12:08:50.062Z,1212
2018-09-21T12:09:52.109Z,1272
2018-09-21T12:10:54.440Z,1268
2018-09-21T12:11:56.895Z,1736
2018-09-21T12:12:58.950Z,2276
2018-09-21T12:14:00.981Z,2412
2018-09-21T12:15:03.413Z,2896
2018-09-21T12:16:05.516Z,3348
2018-09-21T12:17:08.588Z,2492
2018-09-21T12:18:10.935Z,2036
2018-09-21T12:19:12.977Z,2876
2018-09-21T12:20:15.417Z,5072
2018-09-21T12:21:17.453Z,4492
2018-09-21T12:22:19.517Z,4316
2018-09-21T12:23:21.599Z,2700
2018-09-21T12:24:23.646Z,3760
2018-09-21T12:25:25.994Z,3228
2018-09-21T12:26:28.429Z,2824
2018-09-21T12:27:30.468Z,2936
2018-09-21T12:28:32.546Z,3388
2018-09-21T12:29:34.579Z,3680
2018-09-21T12:30:37.024Z,2768
2018-09-21T12:31:39.705Z,2868
2018-09-21T12:32:41.752Z,1872
2018-09-21T12:33:43.808Z,2084
2018-09-21T12:34:46.154Z,2080
2018-09-21T12:35:48.533Z,1960
2018-09-21T12:36:51.567Z,2032
2018-09-21T12:37:53.920Z,1944
2018-09-21T12:38:55.971Z,1828
2018-09-21T12:39:58.425Z,1756
2018-09-21T12:41:00.483Z,2328
2018-09-21T12:42:02.528Z,2964
2018-09-21T12:43:04.553Z,2920
2018-09-21T12:44:06.588Z,3756
2018-09-21T12:45:08.630Z,3916
2018-09-21T12:46:10.684Z,3156
2018-09-21T12:47:12.726Z,2100
2018-09-21T12:48:14.806Z,2380
2018-09-21T12:49:17.117Z,3228
2018-09-21T12:50:19.248Z,4008
2018-09-21T12:51:22.531Z,4184
2018-09-21T12:52:24.590Z,3684
2018-09-21T12:53:26.650Z,3588
2018-09-21T12:54:28.687Z,3704
2018-09-21T12:55:30.721Z,2940
2018-09-21T12:56:33.115Z,3008
2018-09-21T12:57:35.114Z,3392
2018-09-21T12:58:37.869Z,3436
2018-09-21T12:59:39.925Z,2864
2018-09-21T13:00:41.957Z,3684
2018-09-21T13:01:44.017Z,4612
2018-09-21T13:02:46.085Z,5312
2018-09-21T13:03:48.095Z,5032
2018-09-21T13:04:50.234Z,3572
2018-09-21T13:05:52.249Z,3240
2018-09-21T13:06:54.287Z,3464
2018-09-21T13:07:56.372Z,4608
2018-09-21T13:08:58.410Z,5060
2018-09-21T13:10:00.448Z,5160
2018-09-21T13:11:02.753Z,5444
2018-09-21T13:12:05.090Z,5804
2018-09-21T13:13:07.183Z,5240
2018-09-21T13:14:09.231Z,6032
2018-09-21T13:15:11.685Z,7188
2018-09-21T13:16:13.667Z,7092
2018-09-21T13:17:15.876Z,7432
2018-09-21T13:18:17.898Z,6632
2018-09-21T13:19:19.940Z,6888
2018-09-21T13:20:21.965Z,6304
2018-09-21T13:21:23.994Z,6804
2018-09-21T13:22:26.186Z,7036
2018-09-21T13:23:28.260Z,6784
2018-09-21T13:24:30.291Z,6804
2018-09-21T13:25:32.348Z,6552
2018-09-21T13:26:34.670Z,6416
2018-09-21T13:27:37.033Z,6488
2018-09-21T13:28:39.433Z,6264
2018-09-21T13:29:42.060Z,5428
2018-09-21T13:30:44.101Z,5020
2018-09-21T13:31:46.230Z,4904
2018-09-21T13:32:48.266Z,5512
2018-09-21T13:33:50.341Z,4908
2018-09-21T13:34:52.364Z,4352
2018-09-21T13:35:54.696Z,4624
2018-09-21T13:36:56.724Z,4336
2018-09-21T13:37:59.043Z,4780
2018-09-21T13:39:01.073Z,4680
2018-09-21T13:40:03.401Z,4840
2018-09-21T13:41:05.429Z,4620
2018-09-21T13:42:07.857Z,3848
2018-09-21T13:43:09.899Z,2968
2018-09-21T13:44:11.921Z,2812
2018-09-21T13:45:13.969Z,3644
2018-09-21T13:46:15.992Z,4700
2018-09-21T13:47:18.418Z,6096
2018-09-21T13:48:20.828Z,5284
2018-09-21T13:49:23.144Z,4620
2018-09-21T13:50:25.176Z,3992
2018-09-21T13:51:27.196Z,3400
2018-09-21T13:52:29.245Z,2920
2018-09-21T13:53:31.259Z,2840
2018-09-21T13:54:33.297Z,2820
2018-09-21T13:55:35.338Z,3220
2018-09-21T13:56:37.657Z,3820
2018-09-21T13:57:39.680Z,4416
2018-09-21T13:58:42.027Z,5188
2018-09-21T13:59:44.066Z,6160
2018-09-21T14:00:46.102Z,6388
2018-09-21T14:01:48.127Z,5588
2018-09-21T14:02:50.553Z,5184
2018-09-21T14:03:52.598Z,5412
2018-09-21T14:04:54.618Z,5336
2018-09-21T14:05:56.679Z,5772
2018-09-21T14:06:58.697Z,6640
2018-09-21T14:08:00.722Z,5968
2018-09-21T14:09:02.773Z,6036